This is the latest recevied weather packets stored in our database for station/object SV5BYP-10. If no packets are shown the sender has not sent any weather packets the latest 10 day(s).
| Time | Temp. | Humidity | Pressure | Rain* | Wind** | Luminosity | Snow |
|---|---|---|---|---|---|---|---|
| 1777625716 | 23.33° C | 74% | 1014 hPa | - | - | - | - |
| 1777620895 | 26.11° C | 55% | 1014.1 hPa | - | - | - | - |
| 1777620295 | 26.67° C | 54% | 1013.7 hPa | - | - | - | - |
| 1777619695 | 26.67° C | 53% | 1013.6 hPa | - | - | - | - |
| 1777619095 | 25.56° C | 55% | 1013.5 hPa | - | - | - | - |
| 1777618495 | 25.56° C | 55% | 1013.6 hPa | - | - | - | - |
| 1777617894 | 26.11° C | 54% | 1013.7 hPa | - | - | - | - |
| 1777617294 | 26.11° C | 53% | 1013.4 hPa | - | - | - | - |
| 1777616694 | 27.22° C | 51% | 1013.3 hPa | - | - | - | - |
| 1777616287 | 27.78° C | 51% | 1013.2 hPa | - | - | - | - |
| 1777616105 | 26.67° C | 44% | 1012.9 hPa | - | - | - | - |
| 1777615979 | 26.67° C | 44% | 1012.9 hPa | - | - | - | - |
| 1777615852 | 25.56° C | 46% | 1013.2 hPa | - | - | - | - |
| 1777615726 | 25.56° C | 46% | 1013 hPa | - | - | - | - |
| 1777615599 | 25° C | 48% | 1013 hPa | - | - | - | - |
| 1777615473 | 25° C | 47% | 1012.9 hPa | - | - | - | - |
| 1777615346 | 25° C | 47% | 1012.9 hPa | - | - | - | - |
| 1777615220 | 25° C | 47% | 1012.9 hPa | - | - | - | - |
| 1777615093 | 25° C | 47% | 1012.8 hPa | - | - | - | - |
| 1777614967 | 25° C | 47% | 1013 hPa | - | - | - | - |
| 1777614840 | 25° C | 46% | 1013 hPa | - | - | - | - |
| 1777614768 | 25° C | 46% | 1013 hPa | - | - | - | - |
| 1777614405 | 25° C | 46% | 1012.9 hPa | - | - | - | - |
| 1777613798 | 25° C | 45% | 1013 hPa | - | - | - | - |
* Rain since midnight (hover to see other rain measurements)
** Current wind speed in m/s (hover to see current wind gust speed)